Time;durP1;ratioP1;P1;durP2;ratioP2;P2;SDS_P1;SDS_P2;PMS_P1;PMS_P2;Temp;Humidity;BMP_temperature;BMP_pressure;BME280_temperature;BME280_humidity;BME280_pressure;Samples;Min_cycle;Max_cycle;Signal;HPM_P1;HPM_P2
2021/05/27 00:00:43;;;;;;;16.85;6.85;;;;;;;;;;1453768;40;20437;-79
2021/05/27 00:01:45;;;;;;;20.50;6.38;;;;;;;;;;1458427;40;20564;-80
2021/05/27 00:02:47;;;;;;;21.70;6.60;;;;;;;;;;1459998;40;20505;-80
2021/05/27 00:03:48;;;;;;;21.05;5.85;;;;;;;;;;1453857;40;20440;-80
2021/05/27 00:04:51;;;;;;;18.27;6.28;;;;;;;;;;1455744;40;20425;-79
2021/05/27 00:05:53;;;;;;;18.27;6.03;;;;;;;;;;1457808;40;20489;-80
2021/05/27 00:06:55;;;;;;;20.80;7.00;;;;;;;;;;1453385;40;20416;-80
2021/05/27 00:07:57;;;;;;;17.10;5.85;;;;;;;;;;1457047;40;20501;-81
2021/05/27 00:08:58;;;;;;;15.57;5.65;;;;;;;;;;1457178;40;20399;-80
2021/05/27 00:10:00;;;;;;;18.73;6.63;;;;;;;;;;1457789;40;20503;-80
2021/05/27 00:11:02;;;;;;;21.27;6.85;;;;;;;;;;1461845;40;20432;-79
2021/05/27 00:12:04;;;;;;;19.20;6.30;;;;;;;;;;1462090;40;20552;-80
2021/05/27 00:13:06;;;;;;;21.60;6.22;;;;;;;;;;1466407;40;20440;-80
2021/05/27 00:14:13;;;;;;;21.10;6.85;;;;;;;;;;1462561;40;20412;-80
2021/05/27 00:15:15;;;;;;;23.27;7.70;;;;;;;;;;1458409;40;20423;-80
2021/05/27 00:16:17;;;;;;;20.88;7.25;;;;;;;;;;1459778;40;20418;-79
2021/05/27 00:17:19;;;;;;;19.23;6.78;;;;;;;;;;1458045;40;20415;-80
2021/05/27 00:18:21;;;;;;;17.15;6.35;;;;;;;;;;1454377;40;20552;-81
2021/05/27 00:19:22;;;;;;;19.00;6.80;;;;;;;;;;1453487;40;20484;-80
2021/05/27 00:20:24;;;;;;;21.85;7.47;;;;;;;;;;1454985;40;20476;-80
2021/05/27 00:21:26;;;;;;;17.60;6.22;;;;;;;;;;1455547;40;20482;-80
2021/05/27 00:22:28;;;;;;;21.17;5.72;;;;;;;;;;1462390;40;20417;-80
2021/05/27 00:23:30;;;;;;;17.17;5.95;;;;;;;;;;1453311;40;20576;-80
2021/05/27 00:24:32;;;;;;;18.42;5.80;;;;;;;;;;1445108;40;20824;-80
2021/05/27 00:25:33;;;;;;;17.33;5.55;;;;;;;;;;1453536;40;20432;-79
2021/05/27 00:26:35;;;;;;;15.90;6.68;;;;;;;;;;1457418;40;20798;-80
2021/05/27 00:27:37;;;;;;;19.02;5.50;;;;;;;;;;1454063;40;21059;-80
2021/05/27 00:28:40;;;;;;;16.02;5.88;;;;;;;;;;1454024;40;20420;-81
2021/05/27 00:29:42;;;;;;;16.98;5.40;;;;;;;;;;1454309;40;20742;-82
2021/05/27 00:30:43;;;;;;;15.93;5.07;;;;;;;;;;1458648;40;20398;-82
2021/05/27 00:31:45;;;;;;;14.60;5.25;;;;;;;;;;1462340;40;20409;-82
2021/05/27 00:32:48;;;;;;;16.48;4.72;;;;;;;;;;1453716;40;20485;-80
2021/05/27 00:33:50;;;;;;;17.67;5.80;;;;;;;;;;1454220;40;20412;-80
2021/05/27 00:34:51;;;;;;;22.50;6.15;;;;;;;;;;1456583;40;20492;-80
2021/05/27 00:35:53;;;;;;;22.00;6.35;;;;;;;;;;1453641;40;20431;-80
2021/05/27 00:36:55;;;;;;;18.08;7.07;;;;;;;;;;1454770;40;20757;-80
2021/05/27 00:37:56;;;;;;;25.75;7.25;;;;;;;;;;1457830;40;20506;-80
2021/05/27 00:38:58;;;;;;;20.23;7.00;;;;;;;;;;1461903;40;20464;-80
2021/05/27 00:39:59;;;;;;;17.55;5.38;;;;;;;;;;1462204;40;20515;-80
2021/05/27 00:41:01;;;;;;;16.00;5.70;;;;;;;;;;1461958;40;20433;-81
2021/05/27 00:42:03;;;;;;;18.23;5.53;;;;;;;;;;1462128;40;20518;-80
2021/05/27 00:43:05;;;;;;;22.27;6.82;;;;;;;;;;1462378;40;20530;-80
2021/05/27 00:44:26;;;;;;;22.83;6.47;;;;;;;;;;1461838;40;20586;-80
2021/05/27 00:45:28;;;;;;;27.60;6.85;;;;;;;;;;1461657;40;20417;-80
2021/05/27 00:46:30;;;;;;;21.48;6.72;;;;;;;;;;1457546;40;20407;-81
2021/05/27 00:47:31;;;;;;;19.70;5.45;;;;;;;;;;1453758;40;20549;-80
2021/05/27 00:49:54;;;;;;;18.73;5.63;;;;;;;;;;1459780;40;20403;-81
2021/05/27 00:50:58;;;;;;;17.33;6.20;;;;;;;;;;1453369;40;20799;-81
2021/05/27 00:52:00;;;;;;;16.27;5.80;;;;;;;;;;1450296;40;20806;-80
2021/05/27 00:53:02;;;;;;;19.02;5.82;;;;;;;;;;1453722;40;20734;-81
2021/05/27 00:54:04;;;;;;;19.42;5.97;;;;;;;;;;1457658;40;20479;-80
2021/05/27 00:55:07;;;;;;;20.83;6.60;;;;;;;;;;1457427;40;20553;-81
2021/05/27 00:56:10;;;;;;;21.10;5.93;;;;;;;;;;1457096;40;20407;-80
2021/05/27 00:57:29;;;;;;;20.25;6.20;;;;;;;;;;1457531;40;20430;-80
2021/05/27 00:58:31;;;;;;;15.98;6.85;;;;;;;;;;1458603;40;20432;-80
2021/05/27 00:59:33;;;;;;;22.63;6.22;;;;;;;;;;1461575;40;20417;-81
2021/05/27 01:00:35;;;;;;;17.80;5.80;;;;;;;;;;1465709;40;20412;-80
2021/05/27 01:01:37;;;;;;;17.27;6.38;;;;;;;;;;1460102;40;20436;-81
2021/05/27 01:02:39;;;;;;;19.48;6.53;;;;;;;;;;1451896;40;20396;-81
2021/05/27 01:03:40;;;;;;;20.65;6.95;;;;;;;;;;1453799;40;20421;-80
2021/05/27 01:04:42;;;;;;;21.08;6.20;;;;;;;;;;1460015;40;20512;-81
2021/05/27 01:05:58;;;;;;;19.40;6.22;;;;;;;;;;1461614;40;20471;-80
2021/05/27 01:06:59;;;;;;;20.88;6.57;;;;;;;;;;1462329;40;20417;-81
2021/05/27 01:08:01;;;;;;;21.42;6.28;;;;;;;;;;1457599;40;20470;-81
2021/05/27 01:09:04;;;;;;;24.27;6.90;;;;;;;;;;1452825;40;20459;-80
2021/05/27 01:10:09;;;;;;;21.45;7.25;;;;;;;;;;1457766;40;20537;-80
2021/05/27 01:11:11;;;;;;;21.65;6.93;;;;;;;;;;1452808;40;20440;-80
2021/05/27 01:12:12;;;;;;;27.08;7.63;;;;;;;;;;1453886;40;20421;-80
2021/05/27 01:13:14;;;;;;;25.13;7.00;;;;;;;;;;1457259;40;20542;-80
2021/05/27 01:15:39;;;;;;;20.30;5.97;;;;;;;;;;1459175;40;20424;-80
2021/05/27 01:16:41;;;;;;;22.85;6.72;;;;;;;;;;1457274;40;20417;-80
2021/05/27 01:17:43;;;;;;;19.45;4.90;;;;;;;;;;1457516;40;20920;-80
2021/05/27 01:18:45;;;;;;;18.65;6.18;;;;;;;;;;1461887;40;20449;-83
2021/05/27 01:19:46;;;;;;;21.17;5.32;;;;;;;;;;1458027;40;20430;-83
2021/05/27 01:20:54;;;;;;;22.15;5.75;;;;;;;;;;1457280;40;20535;-83
2021/05/27 01:21:56;;;;;;;22.50;6.03;;;;;;;;;;1462176;40;20544;-80
2021/05/27 01:22:57;;;;;;;24.88;5.90;;;;;;;;;;1457511;40;20419;-81
2021/05/27 01:24:00;;;;;;;27.83;6.43;;;;;;;;;;1457478;40;20985;-81
2021/05/27 01:25:04;;;;;;;18.15;5.38;;;;;;;;;;1457615;40;20415;-80
2021/05/27 01:26:12;;;;;;;20.42;6.22;;;;;;;;;;1457697;40;21072;-80
2021/05/27 01:27:14;;;;;;;20.63;5.72;;;;;;;;;;1461436;40;20486;-80
2021/05/27 01:28:16;;;;;;;24.30;5.90;;;;;;;;;;1461756;40;20483;-79
2021/05/27 01:29:17;;;;;;;18.98;6.07;;;;;;;;;;1457228;40;21027;-79
2021/05/27 01:30:20;;;;;;;27.33;6.72;;;;;;;;;;1457914;40;20510;-80
2021/05/27 01:31:21;;;;;;;21.83;5.65;;;;;;;;;;1457837;40;20494;-81
2021/05/27 01:32:23;;;;;;;26.50;6.40;;;;;;;;;;1457367;40;20494;-80
2021/05/27 01:33:25;;;;;;;20.77;6.15;;;;;;;;;;1464875;40;20469;-80
2021/05/27 01:34:26;;;;;;;23.63;7.03;;;;;;;;;;1460334;40;20423;-80
2021/05/27 01:35:28;;;;;;;32.00;7.32;;;;;;;;;;1456806;40;20416;-78
2021/05/27 01:36:30;;;;;;;23.20;6.35;;;;;;;;;;1457863;40;20700;-78
2021/05/27 01:37:31;;;;;;;27.60;7.03;;;;;;;;;;1462482;40;20543;-79
2021/05/27 01:38:33;;;;;;;22.42;6.95;;;;;;;;;;1459612;40;20434;-80
2021/05/27 01:39:36;;;;;;;26.77;6.30;;;;;;;;;;1457713;40;20458;-80
2021/05/27 01:40:38;;;;;;;24.13;5.95;;;;;;;;;;1458647;40;20813;-79
2021/05/27 01:41:40;;;;;;;21.90;5.93;;;;;;;;;;1462889;40;20747;-79
2021/05/27 01:42:42;;;;;;;19.27;6.03;;;;;;;;;;1462377;40;20804;-79
2021/05/27 01:43:43;;;;;;;19.70;5.53;;;;;;;;;;1462414;40;20437;-79
2021/05/27 01:44:45;;;;;;;18.80;5.47;;;;;;;;;;1457081;40;20427;-79
2021/05/27 01:45:47;;;;;;;18.23;5.60;;;;;;;;;;1453278;40;20413;-80
2021/05/27 01:46:50;;;;;;;18.13;5.93;;;;;;;;;;1457534;40;20450;-80
2021/05/27 01:47:55;;;;;;;24.10;6.00;;;;;;;;;;1462238;40;20401;-79
2021/05/27 01:48:56;;;;;;;17.67;4.70;;;;;;;;;;1461812;40;20758;-79
2021/05/27 01:49:58;;;;;;;17.95;5.07;;;;;;;;;;1457319;40;20410;-79
2021/05/27 01:50:59;;;;;;;20.30;5.50;;;;;;;;;;1457121;40;20542;-80
2021/05/27 01:52:01;;;;;;;17.05;5.40;;;;;;;;;;1453332;40;20751;-81
2021/05/27 01:53:06;;;;;;;20.13;6.35;;;;;;;;;;1457073;40;20514;-80
2021/05/27 01:54:07;;;;;;;23.05;5.80;;;;;;;;;;1457903;40;20399;-79
2021/05/27 01:55:09;;;;;;;19.65;5.47;;;;;;;;;;1457248;40;20512;-80
2021/05/27 01:56:12;;;;;;;20.50;5.70;;;;;;;;;;1449379;41;20800;-81
2021/05/27 01:57:14;;;;;;;20.02;6.78;;;;;;;;;;1449125;40;20867;-81
2021/05/27 01:58:16;;;;;;;24.77;5.95;;;;;;;;;;1453623;40;20436;-80
2021/05/27 01:59:18;;;;;;;21.73;6.07;;;;;;;;;;1453399;40;20412;-80
2021/05/27 02:00:19;;;;;;;20.77;6.45;;;;;;;;;;1445443;41;20430;-81
2021/05/27 02:01:21;;;;;;;27.45;6.50;;;;;;;;;;1441765;40;20603;-81
2021/05/27 02:02:23;;;;;;;20.20;4.88;;;;;;;;;;1453243;40;20448;-81
2021/05/27 02:03:24;;;;;;;20.08;6.05;;;;;;;;;;1453273;40;20488;-81
2021/05/27 02:04:26;;;;;;;25.58;6.47;;;;;;;;;;1454101;40;20724;-80
2021/05/27 02:05:27;;;;;;;21.95;6.07;;;;;;;;;;1449116;41;20514;-80
2021/05/27 02:06:29;;;;;;;21.40;6.93;;;;;;;;;;1447744;40;20468;-81
2021/05/27 02:07:31;;;;;;;24.40;5.97;;;;;;;;;;1454717;40;20861;-80
2021/05/27 02:08:33;;;;;;;26.48;6.70;;;;;;;;;;1452652;40;20632;-80
2021/05/27 02:09:35;;;;;;;22.50;5.70;;;;;;;;;;1453218;40;21016;-80
2021/05/27 02:10:37;;;;;;;22.58;5.63;;;;;;;;;;1457448;40;20441;-80
2021/05/27 02:11:40;;;;;;;23.90;5.97;;;;;;;;;;1457294;40;21042;-80
2021/05/27 02:12:42;;;;;;;27.92;7.10;;;;;;;;;;1453221;40;20439;-80
2021/05/27 02:13:44;;;;;;;24.77;6.00;;;;;;;;;;1449399;40;20414;-80
2021/05/27 02:14:45;;;;;;;22.47;6.37;;;;;;;;;;1449425;40;20448;-80
2021/05/27 02:15:47;;;;;;;23.58;5.20;;;;;;;;;;1453285;40;20419;-82
2021/05/27 02:16:49;;;;;;;20.42;5.60;;;;;;;;;;1457347;40;20414;-81
2021/05/27 02:17:51;;;;;;;24.75;5.93;;;;;;;;;;1461758;40;20397;-81
2021/05/27 02:18:52;;;;;;;22.77;5.22;;;;;;;;;;1457292;40;20690;-81
2021/05/27 02:19:54;;;;;;;28.73;6.88;;;;;;;;;;1453751;40;20436;-80
2021/05/27 02:20:55;;;;;;;16.95;5.93;;;;;;;;;;1452919;40;20424;-80
2021/05/27 02:21:57;;;;;;;24.05;6.10;;;;;;;;;;1457315;40;20446;-80
2021/05/27 02:22:59;;;;;;;24.55;6.13;;;;;;;;;;1449357;41;20508;-80
2021/05/27 02:24:02;;;;;;;25.30;5.90;;;;;;;;;;1445494;40;20491;-80
2021/05/27 02:25:04;;;;;;;25.85;6.63;;;;;;;;;;1449510;40;20426;-80
2021/05/27 02:26:06;;;;;;;22.08;5.30;;;;;;;;;;1445471;41;20416;-80
2021/05/27 02:27:08;;;;;;;24.02;6.75;;;;;;;;;;1445346;41;20733;-80
2021/05/27 02:28:10;;;;;;;22.17;6.78;;;;;;;;;;1445399;41;20462;-81
2021/05/27 02:29:12;;;;;;;32.08;6.38;;;;;;;;;;1448618;40;20481;-81
2021/05/27 02:30:14;;;;;;;28.73;6.22;;;;;;;;;;1449301;40;20501;-80
2021/05/27 02:31:17;;;;;;;26.10;6.97;;;;;;;;;;1453650;40;20423;-80
2021/05/27 02:32:19;;;;;;;23.05;6.40;;;;;;;;;;1451890;40;20412;-80
2021/05/27 02:33:20;;;;;;;20.95;5.97;;;;;;;;;;1445308;41;20905;-79
2021/05/27 02:34:22;;;;;;;28.63;6.32;;;;;;;;;;1446633;40;20481;-80
2021/05/27 02:35:24;;;;;;;20.70;6.03;;;;;;;;;;1457890;40;20589;-80
2021/05/27 02:36:27;;;;;;;23.77;5.95;;;;;;;;;;1457383;40;20446;-80
2021/05/27 02:37:28;;;;;;;21.50;6.32;;;;;;;;;;1453290;40;20810;-80
2021/05/27 02:38:30;;;;;;;20.35;6.05;;;;;;;;;;1453074;40;20834;-80
2021/05/27 02:39:32;;;;;;;22.98;6.35;;;;;;;;;;1457974;40;20403;-80
2021/05/27 02:40:34;;;;;;;25.15;5.75;;;;;;;;;;1452928;40;20420;-81
2021/05/27 02:41:35;;;;;;;18.67;5.03;;;;;;;;;;1449004;40;20433;-80
2021/05/27 02:42:37;;;;;;;26.57;6.43;;;;;;;;;;1452820;40;20579;-80
2021/05/27 02:43:39;;;;;;;18.10;5.80;;;;;;;;;;1457948;40;20429;-80
2021/05/27 02:44:40;;;;;;;25.73;6.15;;;;;;;;;;1457210;40;20418;-80
2021/05/27 02:45:42;;;;;;;17.42;4.70;;;;;;;;;;1457458;40;20433;-80
2021/05/27 02:46:44;;;;;;;26.60;6.22;;;;;;;;;;1457828;40;20526;-79
2021/05/27 02:47:45;;;;;;;18.70;5.13;;;;;;;;;;1457569;40;20808;-80
2021/05/27 02:48:47;;;;;;;27.00;4.65;;;;;;;;;;1457835;40;20407;-80
2021/05/27 02:49:49;;;;;;;20.38;5.25;;;;;;;;;;1457983;40;20418;-80
2021/05/27 02:50:50;;;;;;;20.90;5.93;;;;;;;;;;1450538;40;20468;-81
2021/05/27 02:51:52;;;;;;;20.85;6.18;;;;;;;;;;1450056;40;20434;-82
2021/05/27 02:52:54;;;;;;;23.77;6.50;;;;;;;;;;1453553;40;21070;-81
2021/05/27 02:53:55;;;;;;;15.50;4.68;;;;;;;;;;1453044;40;20925;-81
2021/05/27 02:54:57;;;;;;;20.70;5.40;;;;;;;;;;1455031;40;20407;-80
2021/05/27 02:55:58;;;;;;;17.70;4.93;;;;;;;;;;1457128;40;21055;-80
2021/05/27 02:57:00;;;;;;;17.75;5.70;;;;;;;;;;1461456;40;20577;-80
2021/05/27 02:58:02;;;;;;;16.50;5.22;;;;;;;;;;1457469;40;21157;-80
2021/05/27 02:59:04;;;;;;;15.40;5.90;;;;;;;;;;1457951;40;20418;-81
2021/05/27 03:00:07;;;;;;;16.00;4.72;;;;;;;;;;1457739;40;20429;-80
2021/05/27 03:01:09;;;;;;;14.65;4.10;;;;;;;;;;1457997;40;20413;-80
2021/05/27 03:02:10;;;;;;;15.27;4.45;;;;;;;;;;1457897;40;20597;-80
2021/05/27 03:03:13;;;;;;;22.08;5.40;;;;;;;;;;1457670;40;21127;-81
2021/05/27 03:04:14;;;;;;;20.52;5.15;;;;;;;;;;1462225;40;20453;-82
2021/05/27 03:05:16;;;;;;;20.35;5.38;;;;;;;;;;1456502;40;20829;-81
2021/05/27 03:06:18;;;;;;;24.65;5.15;;;;;;;;;;1457803;40;21160;-81
2021/05/27 03:07:20;;;;;;;21.20;4.35;;;;;;;;;;1464375;40;20404;-80
2021/05/27 03:08:21;;;;;;;17.40;5.43;;;;;;;;;;1462027;40;20432;-81
2021/05/27 03:09:23;;;;;;;16.70;4.80;;;;;;;;;;1457830;40;20423;-80
2021/05/27 03:10:25;;;;;;;20.95;5.30;;;;;;;;;;1456569;40;20411;-81
2021/05/27 03:11:26;;;;;;;25.58;6.50;;;;;;;;;;1453466;40;20468;-80
2021/05/27 03:12:28;;;;;;;21.75;6.40;;;;;;;;;;1454411;40;20714;-80
2021/05/27 03:13:30;;;;;;;21.00;5.50;;;;;;;;;;1462306;40;20496;-80
2021/05/27 03:14:31;;;;;;;19.52;5.03;;;;;;;;;;1457744;40;20503;-81
2021/05/27 03:15:34;;;;;;;19.33;5.65;;;;;;;;;;1453966;40;20540;-81
2021/05/27 03:16:36;;;;;;;20.52;5.85;;;;;;;;;;1458094;40;20481;-81
2021/05/27 03:17:37;;;;;;;22.80;5.05;;;;;;;;;;1457851;40;20534;-81
2021/05/27 03:18:40;;;;;;;22.52;6.93;;;;;;;;;;1453887;40;20417;-81
2021/05/27 03:19:41;;;;;;;21.83;4.82;;;;;;;;;;1456965;40;20535;-80
2021/05/27 03:20:43;;;;;;;23.42;6.18;;;;;;;;;;1453483;40;20550;-80
2021/05/27 03:21:47;;;;;;;20.30;5.23;;;;;;;;;;1453857;40;20464;-82
2021/05/27 03:22:48;;;;;;;27.02;7.47;;;;;;;;;;1453716;40;20416;-81
2021/05/27 03:23:50;;;;;;;23.17;6.03;;;;;;;;;;1454226;40;20539;-80
2021/05/27 03:24:52;;;;;;;21.75;5.75;;;;;;;;;;1457155;40;20524;-81
2021/05/27 03:25:53;;;;;;;24.10;6.10;;;;;;;;;;1458655;40;20432;-83
2021/05/27 03:26:55;;;;;;;18.58;5.72;;;;;;;;;;1458235;40;20457;-83
2021/05/27 03:27:57;;;;;;;22.95;6.35;;;;;;;;;;1458130;40;20854;-83
2021/05/27 03:28:58;;;;;;;21.95;6.07;;;;;;;;;;1461492;40;20486;-80
2021/05/27 03:30:00;;;;;;;20.88;6.18;;;;;;;;;;1458509;40;20462;-80
2021/05/27 03:31:02;;;;;;;25.35;6.18;;;;;;;;;;1454251;40;20442;-80
2021/05/27 03:32:04;;;;;;;28.08;6.18;;;;;;;;;;1459524;40;20405;-81
2021/05/27 03:33:05;;;;;;;25.05;6.80;;;;;;;;;;1466304;40;20466;-80
2021/05/27 03:34:07;;;;;;;20.20;6.32;;;;;;;;;;1461667;40;20896;-81
2021/05/27 03:35:10;;;;;;;24.75;6.72;;;;;;;;;;1450683;40;20429;-80
2021/05/27 03:36:11;;;;;;;18.83;6.10;;;;;;;;;;1455300;40;20559;-81
2021/05/27 03:37:13;;;;;;;24.92;6.53;;;;;;;;;;1454102;40;21159;-80
2021/05/27 03:38:14;;;;;;;27.15;6.55;;;;;;;;;;1454642;40;20472;-80
2021/05/27 03:39:16;;;;;;;23.10;5.53;;;;;;;;;;1462559;40;20548;-81
2021/05/27 03:40:18;;;;;;;22.13;5.90;;;;;;;;;;1454101;40;20542;-80
2021/05/27 03:41:19;;;;;;;19.38;6.18;;;;;;;;;;1449868;40;20504;-81
2021/05/27 03:42:21;;;;;;;17.80;5.13;;;;;;;;;;1457716;40;20840;-81
2021/05/27 03:43:23;;;;;;;15.07;5.07;;;;;;;;;;1461833;40;20747;-81
2021/05/27 03:44:25;;;;;;;20.63;6.18;;;;;;;;;;1462983;40;20403;-80
2021/05/27 03:45:32;;;;;;;21.50;6.32;;;;;;;;;;1454013;40;20412;-81
2021/05/27 03:46:35;;;;;;;22.50;5.43;;;;;;;;;;1455572;40;20412;-81
2021/05/27 03:47:38;;;;;;;24.35;6.57;;;;;;;;;;1457830;40;21039;-81
2021/05/27 03:48:40;;;;;;;15.20;4.78;;;;;;;;;;1458330;40;20438;-81
2021/05/27 03:49:42;;;;;;;19.35;5.60;;;;;;;;;;1459142;40;20797;-81
2021/05/27 03:50:43;;;;;;;23.33;6.13;;;;;;;;;;1453973;40;20707;-80
2021/05/27 03:51:45;;;;;;;19.38;5.43;;;;;;;;;;1449711;41;20430;-80
2021/05/27 03:52:47;;;;;;;26.35;6.35;;;;;;;;;;1450141;40;20426;-81
2021/05/27 03:53:48;;;;;;;24.63;7.00;;;;;;;;;;1445308;41;20496;-80
2021/05/27 03:54:50;;;;;;;23.05;6.05;;;;;;;;;;1446292;40;20845;-80
2021/05/27 03:55:51;;;;;;;19.85;7.03;;;;;;;;;;1453736;40;20476;-80
2021/05/27 03:56:53;;;;;;;28.70;7.57;;;;;;;;;;1453488;40;20595;-81
2021/05/27 03:57:55;;;;;;;21.50;7.32;;;;;;;;;;1458679;40;20661;-82
2021/05/27 04:01:39;;;;;;;22.60;7.40;;;;;;;;;;1460206;40;20535;-82
2021/05/27 04:02:44;;;;;;;23.60;8.10;;;;;;;;;;1458014;40;20416;-81
2021/05/27 04:07:48;;;;;;;29.95;8.48;;;;;;;;;;1454039;40;20417;-80
2021/05/27 04:08:49;;;;;;;27.90;7.72;;;;;;;;;;1449266;41;20430;-80
2021/05/27 04:09:51;;;;;;;25.77;7.70;;;;;;;;;;1452433;40;20791;-80
2021/05/27 04:10:53;;;;;;;27.85;8.88;;;;;;;;;;1453558;40;20423;-80
2021/05/27 04:12:44;;;;;;;25.23;7.22;;;;;;;;;;1453940;40;20519;-80
2021/05/27 04:13:17;;;;;;;24.27;7.65;;;;;;;;;;1453967;40;20482;-79
2021/05/27 04:14:18;;;;;;;30.77;7.65;;;;;;;;;;1454414;40;20527;-80
2021/05/27 04:15:29;;;;;;;27.67;8.07;;;;;;;;;;1454270;40;20482;-80
2021/05/27 04:16:30;;;;;;;24.23;8.07;;;;;;;;;;1454027;40;20858;-80
2021/05/27 04:17:32;;;;;;;21.50;7.47;;;;;;;;;;1453561;40;20484;-80
2021/05/27 04:18:34;;;;;;;26.35;8.40;;;;;;;;;;1449242;41;20441;-79
2021/05/27 04:19:36;;;;;;;25.30;7.15;;;;;;;;;;1446683;40;20443;-80
2021/05/27 04:20:40;;;;;;;24.45;7.10;;;;;;;;;;1453309;40;20412;-79
2021/05/27 04:21:42;;;;;;;29.58;8.30;;;;;;;;;;1452765;40;20496;-79
2021/05/27 04:22:44;;;;;;;18.75;7.10;;;;;;;;;;1457736;40;20429;-79
2021/05/27 04:23:46;;;;;;;23.65;7.90;;;;;;;;;;1453351;40;20428;-80
2021/05/27 04:24:48;;;;;;;20.05;6.30;;;;;;;;;;1449858;40;20465;-80
2021/05/27 04:25:50;;;;;;;25.42;6.60;;;;;;;;;;1453821;40;20503;-80
2021/05/27 04:26:52;;;;;;;22.88;6.43;;;;;;;;;;1453568;40;20739;-79
2021/05/27 04:27:55;;;;;;;18.85;6.95;;;;;;;;;;1453374;40;20491;-80
2021/05/27 04:28:58;;;;;;;22.92;7.32;;;;;;;;;;1458154;40;20437;-82
2021/05/27 04:30:12;;;;;;;22.83;7.50;;;;;;;;;;1458140;40;20414;-82
2021/05/27 04:31:18;;;;;;;23.50;7.20;;;;;;;;;;1458039;40;20415;-80
2021/05/27 04:33:52;;;;;;;19.70;6.95;;;;;;;;;;1457987;40;20415;-79
2021/05/27 04:34:54;;;;;;;29.27;7.78;;;;;;;;;;1452813;40;20416;-79
2021/05/27 04:35:55;;;;;;;22.85;7.93;;;;;;;;;;1452060;40;20436;-82
2021/05/27 04:36:57;;;;;;;28.95;7.70;;;;;;;;;;1452787;40;20518;-82
2021/05/27 04:38:02;;;;;;;27.30;9.55;;;;;;;;;;1453470;40;20528;-81
2021/05/27 04:39:03;;;;;;;27.02;8.45;;;;;;;;;;1458349;40;20421;-80
2021/05/27 04:40:06;;;;;;;24.10;8.35;;;;;;;;;;1457841;40;20458;-79
2021/05/27 04:41:08;;;;;;;23.70;7.43;;;;;;;;;;1454120;40;20417;-79
2021/05/27 04:42:09;;;;;;;26.15;7.82;;;;;;;;;;1449431;41;20466;-79
2021/05/27 04:43:12;;;;;;;27.13;7.38;;;;;;;;;;1449106;40;20430;-81
2021/05/27 04:44:14;;;;;;;31.67;8.65;;;;;;;;;;1453376;40;20556;-81
2021/05/27 04:45:15;;;;;;;26.30;7.80;;;;;;;;;;1447899;41;21182;-80
2021/05/27 04:46:17;;;;;;;31.08;9.15;;;;;;;;;;1449205;40;20438;-79
2021/05/27 04:47:18;;;;;;;30.90;8.88;;;;;;;;;;1456566;40;21020;-79
2021/05/27 04:48:20;;;;;;;27.08;7.80;;;;;;;;;;1457879;40;20446;-79
2021/05/27 04:49:21;;;;;;;26.10;8.85;;;;;;;;;;1458106;40;20411;-79
2021/05/27 04:50:25;;;;;;;25.77;7.03;;;;;;;;;;1457703;40;20426;-80
2021/05/27 04:51:27;;;;;;;27.48;7.78;;;;;;;;;;1459908;40;20426;-79
2021/05/27 04:52:28;;;;;;;30.30;8.02;;;;;;;;;;1453251;40;20440;-79
2021/05/27 04:53:31;;;;;;;23.15;6.80;;;;;;;;;;1453259;40;20562;-78
2021/05/27 04:54:32;;;;;;;23.67;6.70;;;;;;;;;;1453525;40;20437;-79
2021/05/27 04:55:35;;;;;;;27.33;7.07;;;;;;;;;;1459528;40;20908;-78
2021/05/27 04:56:36;;;;;;;20.83;7.03;;;;;;;;;;1461321;40;20540;-79
2021/05/27 04:57:38;;;;;;;24.77;7.72;;;;;;;;;;1457140;40;20750;-80
2021/05/27 04:58:40;;;;;;;25.95;7.07;;;;;;;;;;1453472;40;20763;-79
2021/05/27 04:59:42;;;;;;;24.00;7.53;;;;;;;;;;1456709;40;20490;-79
2021/05/27 05:00:44;;;;;;;24.48;8.43;;;;;;;;;;1457295;40;20436;-78
2021/05/27 05:01:45;;;;;;;27.20;8.20;;;;;;;;;;1457796;40;20422;-78
2021/05/27 05:02:47;;;;;;;26.93;7.43;;;;;;;;;;1461700;40;20576;-79
2021/05/27 05:03:49;;;;;;;25.15;8.02;;;;;;;;;;1457237;40;20447;-79
2021/05/27 05:04:50;;;;;;;21.60;8.20;;;;;;;;;;1454994;40;20495;-79
2021/05/27 05:05:52;;;;;;;24.48;7.53;;;;;;;;;;1457778;40;20447;-80
2021/05/27 05:06:54;;;;;;;23.83;7.20;;;;;;;;;;1456698;40;20419;-80
2021/05/27 05:07:56;;;;;;;29.90;8.15;;;;;;;;;;1453152;40;20413;-82
2021/05/27 05:08:57;;;;;;;23.23;7.15;;;;;;;;;;1452824;40;20858;-82
2021/05/27 05:09:59;;;;;;;27.83;7.10;;;;;;;;;;1457317;40;20781;-83
2021/05/27 05:11:01;;;;;;;26.83;7.28;;;;;;;;;;1457275;40;20475;-79
2021/05/27 05:12:02;;;;;;;23.30;7.35;;;;;;;;;;1456827;40;20410;-80
2021/05/27 05:13:05;;;;;;;22.35;7.00;;;;;;;;;;1457060;40;20449;-79
2021/05/27 05:14:07;;;;;;;23.00;6.93;;;;;;;;;;1453556;40;20950;-79
2021/05/27 05:15:09;;;;;;;24.00;7.30;;;;;;;;;;1457093;40;20474;-79
2021/05/27 05:16:11;;;;;;;26.98;7.22;;;;;;;;;;1462315;40;20416;-79
2021/05/27 05:17:12;;;;;;;18.85;7.00;;;;;;;;;;1461951;40;20428;-79
2021/05/27 05:18:18;;;;;;;25.53;7.13;;;;;;;;;;1462015;40;21038;-79
2021/05/27 05:19:19;;;;;;;18.75;6.88;;;;;;;;;;1456875;40;20422;-79
2021/05/27 05:20:22;;;;;;;25.17;7.85;;;;;;;;;;1455040;40;20474;-79
2021/05/27 05:21:23;;;;;;;24.08;6.38;;;;;;;;;;1455716;40;20583;-79
2021/05/27 05:22:25;;;;;;;21.92;6.53;;;;;;;;;;1457853;40;20429;-79
2021/05/27 05:23:27;;;;;;;22.85;6.15;;;;;;;;;;1457757;40;20489;-79
2021/05/27 05:24:28;;;;;;;24.52;7.18;;;;;;;;;;1457270;40;20536;-79
2021/05/27 05:25:31;;;;;;;19.00;5.55;;;;;;;;;;1459862;40;20514;-79
2021/05/27 05:26:33;;;;;;;21.67;6.70;;;;;;;;;;1461583;40;20424;-79
2021/05/27 05:27:35;;;;;;;15.15;5.45;;;;;;;;;;1452947;40;20512;-80
2021/05/27 05:28:37;;;;;;;23.00;7.13;;;;;;;;;;1453674;40;20463;-79
2021/05/27 05:29:38;;;;;;;20.17;5.90;;;;;;;;;;1457412;40;20895;-80
2021/05/27 05:30:41;;;;;;;22.67;5.57;;;;;;;;;;1462004;40;20452;-80
2021/05/27 05:31:43;;;;;;;20.50;5.60;;;;;;;;;;1457337;40;20974;-80
2021/05/27 05:32:47;;;;;;;18.52;5.85;;;;;;;;;;1457131;40;20835;-79
2021/05/27 05:33:49;;;;;;;20.50;5.40;;;;;;;;;;1461781;40;20426;-79
2021/05/27 05:34:51;;;;;;;21.35;6.20;;;;;;;;;;1451514;40;20812;-80
2021/05/27 05:35:53;;;;;;;23.30;6.65;;;;;;;;;;1449700;40;20456;-80
2021/05/27 05:36:54;;;;;;;18.40;6.13;;;;;;;;;;1452530;40;20464;-80
2021/05/27 05:37:57;;;;;;;17.60;6.20;;;;;;;;;;1453774;40;20424;-82
2021/05/27 05:38:59;;;;;;;20.05;6.50;;;;;;;;;;1453923;40;20520;-80
2021/05/27 05:40:02;;;;;;;20.42;6.50;;;;;;;;;;1453553;40;20428;-80
2021/05/27 05:41:04;;;;;;;19.63;6.07;;;;;;;;;;1450067;40;20470;-79
2021/05/27 05:42:06;;;;;;;26.73;7.40;;;;;;;;;;1449622;40;20489;-79
2021/05/27 05:43:07;;;;;;;22.75;6.25;;;;;;;;;;1453357;40;20781;-79
2021/05/27 05:44:09;;;;;;;20.80;6.50;;;;;;;;;;1457431;40;20855;-79
2021/05/27 05:45:14;;;;;;;20.08;6.18;;;;;;;;;;1458205;40;20407;-80
2021/05/27 05:46:15;;;;;;;19.92;6.63;;;;;;;;;;1458322;40;20410;-80
2021/05/27 05:47:17;;;;;;;20.25;6.13;;;;;;;;;;1458145;40;20470;-79
2021/05/27 05:48:19;;;;;;;22.17;6.65;;;;;;;;;;1448962;40;20482;-81
2021/05/27 05:49:20;;;;;;;20.58;5.78;;;;;;;;;;1446265;40;21301;-79
2021/05/27 05:51:42;;;;;;;18.48;5.43;;;;;;;;;;1460394;40;20408;-80
2021/05/27 05:52:44;;;;;;;18.02;5.25;;;;;;;;;;1456733;40;20427;-79
2021/05/27 05:53:46;;;;;;;19.02;6.65;;;;;;;;;;1457438;40;20474;-80
2021/05/27 05:54:47;;;;;;;20.05;6.15;;;;;;;;;;1461980;40;20436;-80
2021/05/27 05:55:52;;;;;;;20.77;5.88;;;;;;;;;;1454667;40;20445;-80
2021/05/27 05:56:53;;;;;;;14.70;4.55;;;;;;;;;;1453109;40;20439;-81
2021/05/27 05:57:55;;;;;;;16.35;5.38;;;;;;;;;;1457805;40;20411;-80
2021/05/27 05:58:57;;;;;;;18.55;5.32;;;;;;;;;;1453373;40;20421;-81
2021/05/27 05:59:59;;;;;;;21.52;5.70;;;;;;;;;;1449705;40;20418;-82
2021/05/27 06:01:00;;;;;;;14.95;5.13;;;;;;;;;;1449016;40;20425;-82
2021/05/27 06:02:04;;;;;;;20.77;6.70;;;;;;;;;;1452833;40;20484;-79
2021/05/27 06:03:05;;;;;;;23.90;6.40;;;;;;;;;;1457395;40;20433;-79
2021/05/27 06:04:07;;;;;;;24.00;5.82;;;;;;;;;;1457662;40;21130;-79
2021/05/27 06:05:09;;;;;;;21.42;6.90;;;;;;;;;;1448391;40;20434;-80
2021/05/27 06:06:11;;;;;;;15.93;4.53;;;;;;;;;;1453264;40;20924;-80
2021/05/27 06:07:13;;;;;;;15.52;5.57;;;;;;;;;;1456637;40;20422;-80
2021/05/27 06:08:14;;;;;;;18.02;5.47;;;;;;;;;;1449249;40;20519;-79
2021/05/27 06:09:16;;;;;;;17.55;5.63;;;;;;;;;;1449754;40;20489;-78
2021/05/27 06:10:18;;;;;;;16.60;5.88;;;;;;;;;;1461628;40;20553;-81
2021/05/27 06:11:19;;;;;;;16.42;4.95;;;;;;;;;;1457189;40;20450;-79
2021/05/27 06:12:21;;;;;;;18.65;4.95;;;;;;;;;;1457310;40;20426;-80
2021/05/27 06:13:23;;;;;;;12.52;3.55;;;;;;;;;;1461434;40;20428;-79
2021/05/27 06:14:24;;;;;;;16.85;4.55;;;;;;;;;;1460422;40;20982;-79
2021/05/27 06:15:27;;;;;;;9.43;4.28;;;;;;;;;;1461557;40;20432;-79
2021/05/27 06:16:30;;;;;;;19.00;5.28;;;;;;;;;;1457444;40;20407;-79
2021/05/27 06:17:32;;;;;;;19.73;5.95;;;;;;;;;;1453247;40;20424;-79
2021/05/27 06:18:34;;;;;;;18.65;4.80;;;;;;;;;;1457276;40;20427;-80
2021/05/27 06:19:35;;;;;;;16.90;5.28;;;;;;;;;;1456234;40;20431;-79
2021/05/27 06:20:37;;;;;;;16.27;4.38;;;;;;;;;;1449122;40;20922;-80